< Typhoon 202209 2022 Season Typhoon 202211 >
Typhoon 202210 (TOKAGE)
General InformationDetailed Track InformationTrack Information on Google MapsForecast History on Google MapsAccess Analytics MapList of All Images || NewsDisaster Info.JMA Disaster Info. XMLWeblogTrackbackTyphoon FrontTwiphoonTyphoon Now!Typhoon ImaginationResourceGoogle EarthGE AnimationAtom FeedGeoJSON
Detalied Best Track Wind (Time Zone = UTC)
Year Month Day Hour Lat. Long. Wind (kt) Gust (kt) Direc. of Major Storm Axis Radius of Major Storm Axis (nm) Radius of Minor Storm Axis (nm) Direc. of Major Gale Axis Radius of Major Gale Axis (nm) Radius of Minor Gale Axis (nm) Image
2022 8 21 18 22.6 151.1 30 45 - - - - - - Image
2022 8 21 21 22.8 151.1 30 45 - - - - - - Image
2022 8 22 00 23.3 151.4 30 45 - - - - - - Image
2022 8 22 03 24.5 151.6 35 50 - - - E 210 150 Image
2022 8 22 06 25.1 151.6 35 50 - - - E 210 150 Image
2022 8 22 09 25.6 151.6 40 60 - - - E 210 150 Image
2022 8 22 12 26.2 151.5 45 65 - - - E 210 150 Image
2022 8 22 15 26.5 151.6 45 65 - - - E 210 150 Image
2022 8 22 18 27.5 151.0 50 70 - - - E 180 150 Image
2022 8 22 21 27.9 150.9 50 70 - - - E 180 150 Image
2022 8 23 00 28.6 150.5 55 80 symmetric 40 40 E 180 150 Image
2022 8 23 03 29.4 150.4 55 80 symmetric 40 40 E 180 150 Image
2022 8 23 06 30.1 149.9 60 85 symmetric 40 40 E 180 150 Image
2022 8 23 09 30.8 149.5 60 85 symmetric 40 40 E 180 150 Image
2022 8 23 12 31.5 149.1 70 100 E 80 40 E 180 150 Image
2022 8 23 15 32.1 148.9 70 100 E 80 40 E 180 150 Image
2022 8 23 18 32.9 148.6 75 105 E 80 40 E 180 150 Image
2022 8 23 21 33.5 148.6 75 105 E 80 40 E 180 150 Image
2022 8 24 00 34.1 148.6 75 105 E 80 40 E 180 150 Image
2022 8 24 03 34.7 148.7 75 105 E 60 40 E 210 150 Image
2022 8 24 06 35.1 149.0 75 105 E 60 40 E 210 150 Image
2022 8 24 09 35.7 149.3 75 105 E 60 40 E 210 150 Image
2022 8 24 12 36.2 149.5 75 105 E 60 40 E 150 90 Image
2022 8 24 15 36.6 149.8 75 105 E 60 40 E 150 90 Image
2022 8 24 18 37.2 150.3 75 105 E 60 40 E 150 90 Image
2022 8 24 21 37.8 150.8 75 105 E 60 40 E 150 90 Image
2022 8 25 00 38.4 151.3 70 100 symmetric 30 30 E 150 90 Image
2022 8 25 03 39.3 151.9 65 95 symmetric 25 25 E 150 60 Image
2022 8 25 06 40.5 152.3 55 80 symmetric 20 20 E 150 60 Image
2022 8 25 09 41.6 153.8 55 80 symmetric 20 20 E 150 60 Image
2022 8 25 12 42.9 155.1 50 70 - - - SE 180 90 Image
2022 8 25 15 43.4 156.3 50 70 - - - E 180 90 Image
2022 8 25 18 45.0 158.0 45 0 - - - SE 300 200 Image
Japan Meteorological Agency Best Track Data | Correction Date : 2022-08-25
< Typhoon 202209 2022 Season Typhoon 202211 >

Help